Time;durP1;ratioP1;P1;durP2;ratioP2;P2;SDS_P1;SDS_P2;PMS_P1;PMS_P2;Temp;Humidity;BMP_temperature;BMP_pressure;BME280_temperature;BME280_humidity;BME280_pressure;Samples;Min_cycle;Max_cycle;Signal;HPM_P1;HPM_P2
2022/07/16 00:02:26;;;;;;;2.10;1.80;;;;;;;;;;5073023;28;20433;-75
2022/07/16 00:04:53;;;;;;;2.60;2.00;;;;;;;;;;5073547;28;20452;-75
2022/07/16 00:07:21;;;;;;;3.80;2.10;;;;;;;;;;5072866;28;20452;-74
2022/07/16 00:09:48;;;;;;;6.03;2.23;;;;;;;;;;5075352;28;20506;-74
2022/07/16 00:12:15;;;;;;;2.47;2.10;;;;;;;;;;5070210;28;20579;-75
2022/07/16 00:14:43;;;;;;;6.67;2.03;;;;;;;;;;5061781;28;20480;-75
2022/07/16 00:17:10;;;;;;;2.70;2.03;;;;;;;;;;5058922;28;20740;-75
2022/07/16 00:19:38;;;;;;;4.30;2.00;;;;;;;;;;5052719;28;20455;-75
2022/07/16 00:22:05;;;;;;;2.87;1.90;;;;;;;;;;5052027;28;20450;-74
2022/07/16 00:24:32;;;;;;;4.63;2.47;;;;;;;;;;5053057;28;20451;-75
2022/07/16 00:26:59;;;;;;;3.10;2.43;;;;;;;;;;5053285;28;20454;-75
2022/07/16 00:29:26;;;;;;;3.10;2.30;;;;;;;;;;5066472;28;20456;-74
2022/07/16 00:31:54;;;;;;;7.07;2.40;;;;;;;;;;5074436;28;20941;-74
2022/07/16 00:34:22;;;;;;;3.73;2.10;;;;;;;;;;5070813;28;20492;-75
2022/07/16 00:36:51;;;;;;;4.50;2.40;;;;;;;;;;5059366;28;20817;-74
2022/07/16 00:39:19;;;;;;;7.10;2.63;;;;;;;;;;5059739;28;20918;-75
2022/07/16 00:41:47;;;;;;;4.47;2.17;;;;;;;;;;5051080;28;20451;-75
2022/07/16 00:44:15;;;;;;;5.37;2.57;;;;;;;;;;5050583;28;20517;-75
2022/07/16 00:46:43;;;;;;;6.17;2.47;;;;;;;;;;5052204;28;20468;-75
2022/07/16 00:49:11;;;;;;;4.40;2.40;;;;;;;;;;5053242;28;20907;-75
2022/07/16 00:51:39;;;;;;;4.53;2.37;;;;;;;;;;5063445;28;20440;-75
2022/07/16 00:54:07;;;;;;;5.37;2.73;;;;;;;;;;5074375;28;20462;-75
2022/07/16 00:56:35;;;;;;;3.63;2.00;;;;;;;;;;5070606;28;20462;-75
2022/07/16 00:59:02;;;;;;;3.10;2.00;;;;;;;;;;5061807;28;20437;-75
2022/07/16 01:01:29;;;;;;;3.70;2.23;;;;;;;;;;5063853;28;20440;-75
2022/07/16 01:03:56;;;;;;;2.87;2.00;;;;;;;;;;5072333;28;20446;-75
2022/07/16 01:06:23;;;;;;;4.13;2.67;;;;;;;;;;5071270;28;20935;-75
2022/07/16 01:08:51;;;;;;;4.00;2.73;;;;;;;;;;5072213;28;21014;-75
2022/07/16 01:11:20;;;;;;;2.93;1.97;;;;;;;;;;5072499;28;20801;-74
2022/07/16 01:13:48;;;;;;;5.17;2.07;;;;;;;;;;5072427;28;20460;-75
2022/07/16 01:16:16;;;;;;;4.30;2.20;;;;;;;;;;5073636;28;20584;-75
2022/07/16 01:18:44;;;;;;;3.17;2.40;;;;;;;;;;5069944;28;20428;-75
2022/07/16 01:21:12;;;;;;;3.40;2.03;;;;;;;;;;5061591;28;20453;-74
2022/07/16 01:23:42;;;;;;;4.93;1.90;;;;;;;;;;5063030;28;20439;-75
2022/07/16 01:26:09;;;;;;;3.53;2.00;;;;;;;;;;5071432;28;20467;-76
2022/07/16 01:28:36;;;;;;;5.80;2.57;;;;;;;;;;5070872;28;20823;-75
2022/07/16 01:31:04;;;;;;;3.50;2.13;;;;;;;;;;5071598;28;20495;-75
2022/07/16 01:33:32;;;;;;;2.90;2.40;;;;;;;;;;5072125;28;20455;-75
2022/07/16 01:36:00;;;;;;;2.97;2.67;;;;;;;;;;5071974;28;20515;-74
2022/07/16 01:38:28;;;;;;;4.67;2.63;;;;;;;;;;5072454;28;20444;-75
2022/07/16 01:40:57;;;;;;;6.37;2.40;;;;;;;;;;5072313;28;20450;-75
2022/07/16 01:43:25;;;;;;;6.03;2.77;;;;;;;;;;5057926;28;20447;-74
2022/07/16 01:45:53;;;;;;;4.57;2.93;;;;;;;;;;5058869;28;20813;-75
2022/07/16 01:48:20;;;;;;;3.87;2.80;;;;;;;;;;5049455;28;20433;-75
2022/07/16 01:50:48;;;;;;;6.07;2.60;;;;;;;;;;5050441;28;21020;-75
2022/07/16 01:53:15;;;;;;;4.97;2.43;;;;;;;;;;5051464;28;20769;-75
2022/07/16 01:55:43;;;;;;;3.10;2.40;;;;;;;;;;5051423;28;21003;-75
2022/07/16 01:58:12;;;;;;;3.67;2.50;;;;;;;;;;5059927;28;20470;-75
2022/07/16 02:00:41;;;;;;;3.00;2.53;;;;;;;;;;5073529;28;20526;-75
2022/07/16 02:03:08;;;;;;;4.67;2.80;;;;;;;;;;5071060;28;20432;-75
2022/07/16 02:05:36;;;;;;;3.93;2.70;;;;;;;;;;5059593;28;20452;-75
2022/07/16 02:08:03;;;;;;;3.60;2.43;;;;;;;;;;5061149;28;20822;-75
2022/07/16 02:10:30;;;;;;;3.57;2.53;;;;;;;;;;5050374;28;20869;-75
2022/07/16 02:12:58;;;;;;;6.13;2.50;;;;;;;;;;5050518;28;20449;-75
2022/07/16 02:15:26;;;;;;;3.50;2.53;;;;;;;;;;5051144;28;20488;-74
2022/07/16 02:17:54;;;;;;;4.33;2.73;;;;;;;;;;5051618;28;20782;-75
2022/07/16 02:20:21;;;;;;;2.77;2.30;;;;;;;;;;5059399;28;20478;-75
2022/07/16 02:22:48;;;;;;;3.30;2.27;;;;;;;;;;5073067;28;20454;-75
2022/07/16 02:25:16;;;;;;;3.70;2.50;;;;;;;;;;5072179;28;20462;-75
2022/07/16 02:30:24;;;;;;;4.40;2.40;;;;;;;;;;5061123;28;20419;-75
2022/07/16 02:32:52;;;;;;;5.63;2.80;;;;;;;;;;5070260;28;20535;-75
2022/07/16 02:35:20;;;;;;;2.70;2.40;;;;;;;;;;5069590;28;20840;-75
2022/07/16 02:37:47;;;;;;;3.10;2.53;;;;;;;;;;5071167;28;20439;-74
2022/07/16 02:40:14;;;;;;;3.60;2.30;;;;;;;;;;5071361;28;20802;-75
2022/07/16 02:42:42;;;;;;;4.17;2.83;;;;;;;;;;5071435;28;20537;-75
2022/07/16 02:45:10;;;;;;;2.73;2.50;;;;;;;;;;5073044;28;20467;-75
2022/07/16 02:47:38;;;;;;;3.80;2.90;;;;;;;;;;5071681;28;20954;-75
2022/07/16 02:50:07;;;;;;;2.90;2.40;;;;;;;;;;5059247;28;20431;-75
2022/07/16 02:52:34;;;;;;;3.80;2.80;;;;;;;;;;5059085;28;20433;-75
2022/07/16 02:55:02;;;;;;;3.10;2.57;;;;;;;;;;5052269;28;20474;-74
2022/07/16 02:57:29;;;;;;;3.67;3.10;;;;;;;;;;5053757;28;20505;-75
2022/07/16 02:59:56;;;;;;;2.83;2.57;;;;;;;;;;5054503;28;20874;-75
2022/07/16 03:02:23;;;;;;;2.50;2.30;;;;;;;;;;5054593;28;20439;-74
2022/07/16 03:04:50;;;;;;;4.10;3.10;;;;;;;;;;5062796;28;20439;-74
2022/07/16 03:07:19;;;;;;;3.90;2.90;;;;;;;;;;5075364;28;20449;-75
2022/07/16 03:09:46;;;;;;;4.13;2.77;;;;;;;;;;5075969;28;20443;-75
2022/07/16 03:12:13;;;;;;;3.60;2.20;;;;;;;;;;5062929;28;20432;-75
2022/07/16 03:14:41;;;;;;;4.13;2.97;;;;;;;;;;5064904;28;20891;-74
2022/07/16 03:17:08;;;;;;;4.20;2.80;;;;;;;;;;5053187;28;20522;-75
2022/07/16 03:19:35;;;;;;;4.40;2.80;;;;;;;;;;5053361;28;20443;-75
2022/07/16 03:22:02;;;;;;;3.70;2.60;;;;;;;;;;5054168;28;20937;-75
2022/07/16 03:24:31;;;;;;;3.90;2.90;;;;;;;;;;5054457;28;20449;-74
2022/07/16 03:26:59;;;;;;;5.73;2.80;;;;;;;;;;5060619;28;20578;-75
2022/07/16 03:29:27;;;;;;;4.00;2.73;;;;;;;;;;5074837;28;20443;-75
2022/07/16 03:31:54;;;;;;;5.30;3.00;;;;;;;;;;5075833;28;20440;-75
2022/07/16 03:34:21;;;;;;;3.90;2.73;;;;;;;;;;5061420;28;21157;-75
2022/07/16 03:36:49;;;;;;;3.67;2.30;;;;;;;;;;5062169;28;20487;-75
2022/07/16 03:39:16;;;;;;;2.90;2.70;;;;;;;;;;5073147;28;20450;-75
2022/07/16 03:41:44;;;;;;;3.33;2.87;;;;;;;;;;5072852;28;20812;-75
2022/07/16 03:44:12;;;;;;;5.30;3.23;;;;;;;;;;5073494;28;20440;-75
2022/07/16 03:46:40;;;;;;;5.40;2.67;;;;;;;;;;5073907;28;20993;-75
2022/07/16 03:49:07;;;;;;;4.60;2.60;;;;;;;;;;5073768;28;20952;-75
2022/07/16 03:51:34;;;;;;;3.50;2.60;;;;;;;;;;5075688;28;20784;-75
2022/07/16 03:54:02;;;;;;;3.87;3.00;;;;;;;;;;5075538;28;20421;-75
2022/07/16 03:56:29;;;;;;;3.90;2.77;;;;;;;;;;5061889;28;20554;-76
2022/07/16 03:58:58;;;;;;;2.93;2.63;;;;;;;;;;5064702;28;20439;-75
2022/07/16 04:01:25;;;;;;;3.60;2.70;;;;;;;;;;5072084;28;20446;-75
2022/07/16 04:03:52;;;;;;;3.77;2.53;;;;;;;;;;5071275;28;20764;-75
2022/07/16 04:06:20;;;;;;;3.90;2.27;;;;;;;;;;5072783;28;20461;-74
2022/07/16 04:08:47;;;;;;;3.83;2.97;;;;;;;;;;5073540;28;20450;-75
2022/07/16 04:11:14;;;;;;;5.20;2.80;;;;;;;;;;5072926;28;20538;-75
2022/07/16 04:13:42;;;;;;;4.60;2.70;;;;;;;;;;5075303;28;20850;-75
2022/07/16 04:16:11;;;;;;;4.40;2.60;;;;;;;;;;5075258;28;20498;-75
2022/07/16 04:18:39;;;;;;;5.73;3.03;;;;;;;;;;5062813;28;20454;-75
2022/07/16 04:21:07;;;;;;;4.50;2.50;;;;;;;;;;5059787;28;20436;-75
2022/07/16 04:23:34;;;;;;;3.73;2.60;;;;;;;;;;5071862;28;20456;-75
2022/07/16 04:26:02;;;;;;;3.60;3.00;;;;;;;;;;5072194;28;20460;-75
2022/07/16 04:28:29;;;;;;;2.80;2.53;;;;;;;;;;5072974;28;20415;-75
2022/07/16 04:30:56;;;;;;;5.47;2.60;;;;;;;;;;5073281;28;20425;-75
2022/07/16 04:33:25;;;;;;;3.13;2.50;;;;;;;;;;5072606;28;20446;-75
2022/07/16 04:35:52;;;;;;;5.93;2.80;;;;;;;;;;5074440;28;20487;-75
2022/07/16 04:38:20;;;;;;;3.33;2.20;;;;;;;;;;5074473;28;20440;-74
2022/07/16 04:40:47;;;;;;;3.77;2.53;;;;;;;;;;5063099;28;20768;-75
2022/07/16 04:43:14;;;;;;;4.20;3.20;;;;;;;;;;5064462;28;20436;-75
2022/07/16 04:45:41;;;;;;;3.97;2.80;;;;;;;;;;5070913;28;20456;-75
2022/07/16 04:48:08;;;;;;;3.17;2.80;;;;;;;;;;5071569;28;20882;-76
2022/07/16 04:50:37;;;;;;;4.77;3.23;;;;;;;;;;5072317;28;20407;-75
2022/07/16 04:53:04;;;;;;;4.20;3.00;;;;;;;;;;5072870;28;20449;-75
2022/07/16 04:55:31;;;;;;;3.93;3.23;;;;;;;;;;5071955;28;20471;-75
2022/07/16 04:57:58;;;;;;;5.07;3.20;;;;;;;;;;5074490;28;20510;-75
2022/07/16 05:00:26;;;;;;;4.30;3.20;;;;;;;;;;5074477;28;20451;-75
2022/07/16 05:03:00;;;;;;;3.67;2.80;;;;;;;;;;5062602;28;20502;-75
2022/07/16 05:05:28;;;;;;;5.70;3.00;;;;;;;;;;5063843;28;20456;-75
2022/07/16 05:07:57;;;;;;;7.63;3.27;;;;;;;;;;5070621;28;20419;-75
2022/07/16 05:10:25;;;;;;;7.30;3.20;;;;;;;;;;5071231;28;20407;-75
2022/07/16 05:12:52;;;;;;;4.30;3.20;;;;;;;;;;5072030;28;20427;-75
2022/07/16 05:15:20;;;;;;;4.67;3.00;;;;;;;;;;5072307;28;20435;-75
2022/07/16 05:17:48;;;;;;;3.43;3.10;;;;;;;;;;5070356;28;20840;-75
2022/07/16 05:20:15;;;;;;;6.90;3.70;;;;;;;;;;5073961;28;20419;-75
2022/07/16 05:22:42;;;;;;;6.83;3.03;;;;;;;;;;5073998;28;20860;-74
2022/07/16 05:25:11;;;;;;;4.50;2.67;;;;;;;;;;5062665;28;20427;-75
2022/07/16 05:27:39;;;;;;;5.33;2.83;;;;;;;;;;5062888;28;20432;-75
2022/07/16 05:30:07;;;;;;;3.47;2.70;;;;;;;;;;5050978;28;20416;-74
2022/07/16 05:32:34;;;;;;;4.20;2.77;;;;;;;;;;5050522;28;20421;-75
2022/07/16 05:35:02;;;;;;;3.10;2.80;;;;;;;;;;5051509;28;20453;-74
2022/07/16 05:37:29;;;;;;;4.07;2.70;;;;;;;;;;5052057;28;20533;-74
2022/07/16 05:39:57;;;;;;;3.90;2.90;;;;;;;;;;5053189;28;20466;-75
2022/07/16 05:42:25;;;;;;;3.77;2.80;;;;;;;;;;5073699;28;20416;-75
2022/07/16 05:44:52;;;;;;;3.03;2.67;;;;;;;;;;5073523;28;20423;-74
2022/07/16 05:47:19;;;;;;;4.27;2.87;;;;;;;;;;5063465;28;20416;-75
2022/07/16 05:49:47;;;;;;;3.30;2.57;;;;;;;;;;5063161;28;20436;-75
2022/07/16 05:52:14;;;;;;;5.80;2.73;;;;;;;;;;5068193;28;20409;-75
2022/07/16 05:54:41;;;;;;;4.60;2.50;;;;;;;;;;5071174;28;20893;-75
2022/07/16 05:57:08;;;;;;;6.73;3.53;;;;;;;;;;5070641;28;20807;-73
2022/07/16 05:59:37;;;;;;;3.83;3.00;;;;;;;;;;5067444;28;20413;-75
2022/07/16 06:02:04;;;;;;;4.80;2.83;;;;;;;;;;5067857;28;20447;-75
2022/07/16 06:04:31;;;;;;;4.07;2.70;;;;;;;;;;5051018;28;20929;-75
2022/07/16 06:06:59;;;;;;;4.23;2.50;;;;;;;;;;5058046;28;20467;-75
2022/07/16 06:09:26;;;;;;;5.70;3.00;;;;;;;;;;5054350;28;20502;-75
2022/07/16 06:11:53;;;;;;;5.93;2.50;;;;;;;;;;5047367;28;20427;-76
2022/07/16 06:14:21;;;;;;;6.93;3.43;;;;;;;;;;5046736;28;20451;-75
2022/07/16 06:16:49;;;;;;;4.37;3.03;;;;;;;;;;5047644;28;20827;-76
2022/07/16 06:19:17;;;;;;;5.60;3.20;;;;;;;;;;5048137;28;20437;-75
2022/07/16 06:21:44;;;;;;;4.37;2.47;;;;;;;;;;5059317;28;20464;-75
2022/07/16 06:24:11;;;;;;;4.57;2.50;;;;;;;;;;5068110;28;20530;-75
2022/07/16 06:26:46;;;;;;;2.73;2.17;;;;;;;;;;5066929;28;20452;-75
2022/07/16 06:29:13;;;;;;;2.90;2.60;;;;;;;;;;5060191;28;20429;-75
2022/07/16 06:31:41;;;;;;;3.70;2.10;;;;;;;;;;5064991;28;20438;-77
2022/07/16 06:34:09;;;;;;;3.17;2.30;;;;;;;;;;5073893;28;20440;-75
2022/07/16 06:36:36;;;;;;;3.50;2.37;;;;;;;;;;5073468;28;21022;-76
2022/07/16 06:39:04;;;;;;;2.73;1.83;;;;;;;;;;5074651;28;20442;-75
2022/07/16 06:41:31;;;;;;;5.20;2.53;;;;;;;;;;5074925;28;20443;-75
2022/07/16 06:43:58;;;;;;;4.47;2.30;;;;;;;;;;5074291;28;20455;-75
2022/07/16 06:46:25;;;;;;;2.73;2.47;;;;;;;;;;5063607;28;20460;-76
2022/07/16 06:48:53;;;;;;;3.97;2.13;;;;;;;;;;5064316;28;20810;-75
2022/07/16 06:51:21;;;;;;;4.37;2.30;;;;;;;;;;5073841;28;20443;-76
2022/07/16 06:53:49;;;;;;;4.00;2.27;;;;;;;;;;5073621;28;20531;-75
2022/07/16 06:56:16;;;;;;;3.97;2.63;;;;;;;;;;5074670;28;20482;-74
2022/07/16 06:58:43;;;;;;;4.77;2.00;;;;;;;;;;5074966;28;20805;-75
2022/07/16 07:01:11;;;;;;;5.10;2.17;;;;;;;;;;5074740;28;20495;-76
2022/07/16 07:03:39;;;;;;;6.00;2.03;;;;;;;;;;5076563;28;20444;-75
2022/07/16 07:06:07;;;;;;;6.30;2.60;;;;;;;;;;5076308;28;20464;-75
2022/07/16 07:08:35;;;;;;;3.10;2.50;;;;;;;;;;5064280;28;20838;-76
2022/07/16 07:11:02;;;;;;;4.60;2.67;;;;;;;;;;5063664;28;20523;-76
2022/07/16 07:13:30;;;;;;;5.50;2.63;;;;;;;;;;5055307;28;20468;-82
2022/07/16 07:15:58;;;;;;;4.30;3.40;;;;;;;;;;5053542;28;20996;-78
2022/07/16 07:18:25;;;;;;;5.37;3.57;;;;;;;;;;5054065;28;20853;-75
2022/07/16 07:20:52;;;;;;;4.33;3.27;;;;;;;;;;5054462;28;20544;-76
2022/07/16 07:23:19;;;;;;;7.80;3.40;;;;;;;;;;5055696;28;20433;-75
2022/07/16 07:25:48;;;;;;;6.13;4.07;;;;;;;;;;5076137;28;20543;-78
2022/07/16 07:28:16;;;;;;;7.97;4.03;;;;;;;;;;5076004;28;20448;-82
2022/07/16 07:30:43;;;;;;;4.10;3.40;;;;;;;;;;5068113;28;20810;-80
2022/07/16 07:33:10;;;;;;;5.70;3.83;;;;;;;;;;5062841;28;20440;-78
2022/07/16 07:35:37;;;;;;;4.07;3.30;;;;;;;;;;5068885;28;20553;-79
2022/07/16 07:38:05;;;;;;;5.43;4.13;;;;;;;;;;5073473;28;21048;-76
2022/07/16 07:40:32;;;;;;;6.77;4.57;;;;;;;;;;5071898;28;20782;-74
2022/07/16 07:43:00;;;;;;;6.40;3.57;;;;;;;;;;5073776;28;20444;-73
2022/07/16 07:45:28;;;;;;;6.30;3.13;;;;;;;;;;5073793;28;20551;-74
2022/07/16 07:47:55;;;;;;;5.80;4.03;;;;;;;;;;5074692;28;20811;-75
2022/07/16 07:50:23;;;;;;;8.03;3.40;;;;;;;;;;5075732;28;20791;-74
2022/07/16 07:52:50;;;;;;;4.80;4.00;;;;;;;;;;5070327;28;20550;-75
2022/07/16 07:55:18;;;;;;;6.83;5.13;;;;;;;;;;5061824;28;20488;-74
2022/07/16 07:57:45;;;;;;;7.53;4.47;;;;;;;;;;5066418;28;20472;-74
2022/07/16 08:00:15;;;;;;;6.00;4.63;;;;;;;;;;5073149;28;20452;-75
2022/07/16 08:02:44;;;;;;;7.13;3.90;;;;;;;;;;5071319;28;20470;-75
2022/07/16 08:05:11;;;;;;;6.60;4.43;;;;;;;;;;5073252;28;20474;-75
2022/07/16 08:07:38;;;;;;;9.70;4.33;;;;;;;;;;5073621;28;20486;-74
2022/07/16 08:10:06;;;;;;;8.33;4.67;;;;;;;;;;5072892;28;20444;-75
2022/07/16 08:12:34;;;;;;;4.70;3.77;;;;;;;;;;5075191;28;20532;-75
2022/07/16 08:15:02;;;;;;;13.60;4.23;;;;;;;;;;5073622;28;20464;-75
2022/07/16 08:17:30;;;;;;;6.10;4.60;;;;;;;;;;5062298;28;20568;-75
2022/07/16 08:19:57;;;;;;;6.20;4.17;;;;;;;;;;5064467;28;20424;-74
2022/07/16 08:22:25;;;;;;;4.23;3.40;;;;;;;;;;5072135;28;20459;-74
2022/07/16 08:27:33;;;;;;;5.27;3.67;;;;;;;;;;5072438;28;20424;-75
2022/07/16 08:30:00;;;;;;;5.57;3.20;;;;;;;;;;5073182;28;20541;-75
2022/07/16 08:32:27;;;;;;;6.27;3.97;;;;;;;;;;5073235;28;20466;-75
2022/07/16 08:34:56;;;;;;;4.33;3.87;;;;;;;;;;5073520;28;20466;-74
2022/07/16 08:37:31;;;;;;;3.37;3.03;;;;;;;;;;5074560;28;20821;-75
2022/07/16 08:39:59;;;;;;;4.77;3.20;;;;;;;;;;5061726;28;20437;-74
2022/07/16 08:42:27;;;;;;;4.93;3.47;;;;;;;;;;5061935;28;20428;-74
2022/07/16 08:44:54;;;;;;;4.70;2.90;;;;;;;;;;5051779;28;20540;-75
2022/07/16 08:47:22;;;;;;;4.43;3.73;;;;;;;;;;5051431;28;21030;-76
2022/07/16 08:49:51;;;;;;;4.80;2.70;;;;;;;;;;5052388;28;20857;-75
2022/07/16 08:52:21;;;;;;;5.20;3.40;;;;;;;;;;5052405;28;20441;-75
2022/07/16 08:54:49;;;;;;;6.03;3.53;;;;;;;;;;5057334;28;20437;-75
2022/07/16 08:57:16;;;;;;;5.20;3.33;;;;;;;;;;5074317;28;20563;-75
2022/07/16 08:59:44;;;;;;;4.70;3.30;;;;;;;;;;5074386;28;20446;-76
2022/07/16 09:02:13;;;;;;;5.20;3.03;;;;;;;;;;5063028;28;20454;-76
2022/07/16 09:04:40;;;;;;;4.40;3.27;;;;;;;;;;5064016;28;20781;-76
2022/07/16 09:07:07;;;;;;;3.60;2.80;;;;;;;;;;5069436;28;20442;-75
2022/07/16 09:09:36;;;;;;;3.10;2.80;;;;;;;;;;5071217;28;20436;-75
2022/07/16 09:12:03;;;;;;;4.17;2.60;;;;;;;;;;5072059;28;20440;-76
2022/07/16 09:14:30;;;;;;;4.53;3.53;;;;;;;;;;5072380;28;20446;-76
2022/07/16 09:16:57;;;;;;;6.10;5.30;;;;;;;;;;5071141;28;20552;-76
2022/07/16 09:19:27;;;;;;;4.13;3.43;;;;;;;;;;5073965;28;20531;-76
2022/07/16 09:22:03;;;;;;;5.67;3.70;;;;;;;;;;5073974;28;20467;-75
2022/07/16 09:24:33;;;;;;;5.33;3.57;;;;;;;;;;5055450;28;20873;-76
2022/07/16 09:27:03;;;;;;;4.27;3.83;;;;;;;;;;5057328;28;20455;-75
2022/07/16 09:29:30;;;;;;;3.50;3.20;;;;;;;;;;5069996;28;20872;-75
2022/07/16 09:31:58;;;;;;;3.20;2.90;;;;;;;;;;5070543;28;20533;-75
2022/07/16 09:34:25;;;;;;;6.03;3.30;;;;;;;;;;5071681;28;20436;-74
2022/07/16 09:37:00;;;;;;;3.73;2.93;;;;;;;;;;5071633;28;20824;-75
2022/07/16 09:39:27;;;;;;;8.90;3.10;;;;;;;;;;5071456;28;20443;-75
2022/07/16 09:41:55;;;;;;;3.30;2.47;;;;;;;;;;5072553;28;20447;-76
2022/07/16 09:44:24;;;;;;;5.33;2.50;;;;;;;;;;5073674;28;20846;-75
2022/07/16 09:47:00;;;;;;;3.40;2.80;;;;;;;;;;5058627;28;20581;-75
2022/07/16 09:49:27;;;;;;;3.43;2.90;;;;;;;;;;5060684;28;20434;-75
2022/07/16 09:51:55;;;;;;;2.40;2.20;;;;;;;;;;5069350;28;20432;-74
2022/07/16 09:54:27;;;;;;;2.43;2.23;;;;;;;;;;5069361;28;20440;-76
2022/07/16 09:57:05;;;;;;;6.27;3.67;;;;;;;;;;5071025;28;20464;-75
2022/07/16 09:59:34;;;;;;;3.40;3.03;;;;;;;;;;5071801;28;20439;-75
2022/07/16 10:02:02;;;;;;;4.20;2.77;;;;;;;;;;5071795;28;20462;-76
2022/07/16 10:04:30;;;;;;;3.50;2.40;;;;;;;;;;5072599;28;20444;-74
2022/07/16 10:06:58;;;;;;;3.60;2.13;;;;;;;;;;5072062;28;20463;-74
2022/07/16 10:09:25;;;;;;;2.97;2.50;;;;;;;;;;5059666;28;20519;-76
2022/07/16 10:11:53;;;;;;;2.97;2.00;;;;;;;;;;5058667;28;20528;-75
2022/07/16 10:14:21;;;;;;;3.30;1.80;;;;;;;;;;5050358;28;20429;-76
2022/07/16 10:16:49;;;;;;;2.47;2.10;;;;;;;;;;5050254;28;20778;-74
2022/07/16 10:19:17;;;;;;;3.57;2.13;;;;;;;;;;5051355;28;20567;-75
2022/07/16 10:22:11;;;;;;;2.17;1.70;;;;;;;;;;5050237;28;20441;-75
2022/07/16 10:24:44;;;;;;;3.00;1.70;;;;;;;;;;5062320;28;20530;-75
2022/07/16 10:27:19;;;;;;;2.30;1.50;;;;;;;;;;5073164;28;20873;-74
2022/07/16 10:29:47;;;;;;;1.43;1.33;;;;;;;;;;5067988;28;20936;-75
2022/07/16 10:34:56;;;;;;;1.80;1.70;;;;;;;;;;5063090;28;20991;-75
2022/07/16 10:37:28;;;;;;;1.67;1.50;;;;;;;;;;5069471;28;20479;-75
2022/07/16 10:40:10;;;;;;;3.93;1.93;;;;;;;;;;5070351;28;20861;-75
2022/07/16 10:42:37;;;;;;;9.13;6.77;;;;;;;;;;5069942;28;20487;-75
2022/07/16 10:45:04;;;;;;;4.23;3.10;;;;;;;;;;5070957;28;20551;-74
2022/07/16 10:47:46;;;;;;;2.93;1.50;;;;;;;;;;5072847;28;20499;-75
2022/07/16 10:50:16;;;;;;;1.50;1.40;;;;;;;;;;5071902;28;20443;-75
2022/07/16 10:52:43;;;;;;;2.17;1.47;;;;;;;;;;5064230;28;20436;-74
2022/07/16 10:55:11;;;;;;;1.53;1.40;;;;;;;;;;5059314;28;20517;-74
2022/07/16 10:57:40;;;;;;;2.33;1.63;;;;;;;;;;5066437;28;20998;-75
2022/07/16 11:00:08;;;;;;;3.73;1.80;;;;;;;;;;5070746;28;20432;-75
2022/07/16 11:02:39;;;;;;;2.20;1.70;;;;;;;;;;5070129;28;20443;-75
2022/07/16 11:05:07;;;;;;;4.00;1.50;;;;;;;;;;5070878;28;20555;-75
2022/07/16 11:07:36;;;;;;;2.13;1.43;;;;;;;;;;5070743;28;20455;-75
2022/07/16 11:10:04;;;;;;;1.97;1.27;;;;;;;;;;5070772;28;20454;-76
2022/07/16 11:12:32;;;;;;;2.67;1.73;;;;;;;;;;5072795;28;20476;-75
2022/07/16 11:15:00;;;;;;;2.30;1.50;;;;;;;;;;5064906;28;20782;-76
2022/07/16 11:17:29;;;;;;;2.60;1.43;;;;;;;;;;5062797;28;20438;-76
2022/07/16 11:19:57;;;;;;;5.67;2.00;;;;;;;;;;5069976;28;20472;-75
2022/07/16 11:22:26;;;;;;;2.73;1.83;;;;;;;;;;5072723;28;20872;-75
2022/07/16 11:24:56;;;;;;;1.40;1.20;;;;;;;;;;5072044;28;20878;-75
2022/07/16 11:27:26;;;;;;;2.70;1.80;;;;;;;;;;5073045;28;20444;-75
2022/07/16 11:29:56;;;;;;;2.70;1.53;;;;;;;;;;5074103;28;20483;-75
2022/07/16 11:32:24;;;;;;;1.83;1.30;;;;;;;;;;5075432;28;20467;-75
2022/07/16 11:34:51;;;;;;;7.20;1.80;;;;;;;;;;5075475;28;20456;-75
2022/07/16 11:37:18;;;;;;;2.40;2.20;;;;;;;;;;5067739;28;22057;-75
2022/07/16 11:39:45;;;;;;;2.03;1.70;;;;;;;;;;5064269;28;20480;-76
2022/07/16 11:42:14;;;;;;;2.20;1.97;;;;;;;;;;5069401;28;20443;-79
2022/07/16 11:44:42;;;;;;;3.10;1.70;;;;;;;;;;5073499;28;20940;-82
2022/07/16 11:47:10;;;;;;;3.00;1.90;;;;;;;;;;5071810;28;20440;-78
2022/07/16 11:49:38;;;;;;;3.53;1.50;;;;;;;;;;5073519;28;20445;-80
2022/07/16 11:52:06;;;;;;;2.90;1.53;;;;;;;;;;5072825;28;20466;-80
2022/07/16 11:54:37;;;;;;;2.63;1.70;;;;;;;;;;5074908;28;20451;-81
2022/07/16 11:57:04;;;;;;;1.30;1.20;;;;;;;;;;5075658;28;20444;-74
2022/07/16 11:59:33;;;;;;;2.03;1.60;;;;;;;;;;5068674;28;20483;-77
2022/07/16 12:02:02;;;;;;;1.93;1.30;;;;;;;;;;5062153;28;20875;-75
2022/07/16 12:04:33;;;;;;;1.30;1.20;;;;;;;;;;5067855;28;20450;-76
2022/07/16 12:07:01;;;;;;;2.93;1.83;;;;;;;;;;5073271;28;20543;-74
2022/07/16 12:09:32;;;;;;;2.83;1.80;;;;;;;;;;5072421;28;20540;-75
2022/07/16 12:12:00;;;;;;;2.00;1.83;;;;;;;;;;5072039;28;20436;-75
2022/07/16 12:17:26;;;;;;;2.00;1.40;;;;;;;;;;5133561;27;21022;-76
2022/07/16 12:20:08;;;;;;;2.77;1.70;;;;;;;;;;5135712;27;20444;-75
2022/07/16 12:22:50;;;;;;;4.23;1.83;;;;;;;;;;5114889;28;20874;-75
2022/07/16 12:25:19;;;;;;;2.83;2.23;;;;;;;;;;5107806;28;20561;-75
2022/07/16 12:27:47;;;;;;;2.60;1.40;;;;;;;;;;5108588;28;20931;-75
2022/07/16 12:30:14;;;;;;;2.43;1.67;;;;;;;;;;5091610;28;20443;-75
2022/07/16 12:32:51;;;;;;;2.37;1.60;;;;;;;;;;5108654;28;20470;-77
2022/07/16 12:35:33;;;;;;;1.77;1.57;;;;;;;;;;5110906;28;20478;-77
2022/07/16 12:38:00;;;;;;;1.90;1.70;;;;;;;;;;5110313;28;20518;-77
2022/07/16 12:40:27;;;;;;;2.60;1.93;;;;;;;;;;5113705;28;20434;-75
2022/07/16 12:42:54;;;;;;;3.60;2.07;;;;;;;;;;5114661;28;20785;-73
2022/07/16 12:45:22;;;;;;;3.10;1.70;;;;;;;;;;5125071;27;20680;-77
2022/07/16 12:47:50;;;;;;;2.53;1.87;;;;;;;;;;5128599;27;20437;-75
2022/07/16 12:50:18;;;;;;;1.87;1.50;;;;;;;;;;5128495;27;20440;-76
2022/07/16 12:52:45;;;;;;;3.57;1.43;;;;;;;;;;5129713;28;20467;-76
2022/07/16 13:00:35;;;;;;;4.80;1.80;;;;;;;;;;5089142;28;20454;-77
2022/07/16 13:03:05;;;;;;;4.60;1.53;;;;;;;;;;5106190;27;20434;-75
2022/07/16 13:05:32;;;;;;;2.70;1.70;;;;;;;;;;5114023;27;20442;-75
2022/07/16 13:07:59;;;;;;;2.13;1.60;;;;;;;;;;5109158;28;20540;-75
2022/07/16 13:10:26;;;;;;;1.70;1.40;;;;;;;;;;5107953;28;20538;-77
2022/07/16 13:12:53;;;;;;;2.10;1.90;;;;;;;;;;5107444;28;20431;-77
2022/07/16 13:15:21;;;;;;;2.47;1.80;;;;;;;;;;5108396;28;20470;-77
2022/07/16 13:17:48;;;;;;;1.97;1.47;;;;;;;;;;5108495;28;20434;-76
2022/07/16 13:20:16;;;;;;;3.43;1.60;;;;;;;;;;5109575;28;20459;-75
2022/07/16 13:22:43;;;;;;;3.57;1.97;;;;;;;;;;5110335;28;20798;-76
2022/07/16 13:25:11;;;;;;;4.50;1.67;;;;;;;;;;5111543;28;20955;-76
2022/07/16 13:27:38;;;;;;;2.20;1.80;;;;;;;;;;5105916;27;20539;-75
2022/07/16 13:30:05;;;;;;;2.70;1.70;;;;;;;;;;5097125;28;20423;-76
2022/07/16 13:32:33;;;;;;;2.87;1.77;;;;;;;;;;5094096;28;20450;-75
2022/07/16 13:35:00;;;;;;;4.13;1.67;;;;;;;;;;5093397;28;20555;-75
2022/07/16 13:37:28;;;;;;;3.77;1.60;;;;;;;;;;5094175;28;20489;-77
2022/07/16 13:39:56;;;;;;;1.97;1.60;;;;;;;;;;5094519;28;20431;-75
2022/07/16 13:42:23;;;;;;;2.63;2.00;;;;;;;;;;5095073;28;20447;-76
2022/07/16 13:44:50;;;;;;;5.00;2.07;;;;;;;;;;5096204;28;20440;-76
2022/07/16 13:47:17;;;;;;;3.70;1.40;;;;;;;;;;5096366;28;20434;-75
2022/07/16 13:49:45;;;;;;;2.40;1.60;;;;;;;;;;5100048;28;20518;-76
2022/07/16 13:52:12;;;;;;;1.73;1.47;;;;;;;;;;5097721;28;20435;-75
2022/07/16 13:54:41;;;;;;;2.03;1.77;;;;;;;;;;5093406;28;20442;-75
2022/07/16 13:59:49;;;;;;;3.07;1.70;;;;;;;;;;5092753;28;20431;-76
2022/07/16 14:02:16;;;;;;;2.47;1.67;;;;;;;;;;5094242;28;20440;-76
2022/07/16 14:04:43;;;;;;;3.37;1.90;;;;;;;;;;5094171;28;20463;-74
2022/07/16 14:07:11;;;;;;;3.13;1.60;;;;;;;;;;5095424;28;20444;-76
2022/07/16 14:09:39;;;;;;;2.60;1.93;;;;;;;;;;5095727;28;20436;-74
2022/07/16 14:12:09;;;;;;;3.63;1.80;;;;;;;;;;5099394;28;20431;-76
2022/07/16 14:14:36;;;;;;;2.30;1.57;;;;;;;;;;5098453;28;20442;-76
2022/07/16 14:17:03;;;;;;;2.33;1.73;;;;;;;;;;5092385;28;20471;-76
2022/07/16 14:19:30;;;;;;;4.10;1.63;;;;;;;;;;5092296;28;20447;-77
2022/07/16 14:21:58;;;;;;;2.40;1.60;;;;;;;;;;5093579;28;20436;-76
2022/07/16 14:24:25;;;;;;;2.60;1.67;;;;;;;;;;5093667;28;20435;-78
2022/07/16 14:26:52;;;;;;;4.83;1.73;;;;;;;;;;5093606;28;20478;-76
2022/07/16 14:29:21;;;;;;;2.13;1.60;;;;;;;;;;5095633;28;20950;-75
2022/07/16 14:31:48;;;;;;;1.90;1.37;;;;;;;;;;5077385;28;20435;-76
2022/07/16 14:34:15;;;;;;;2.87;1.80;;;;;;;;;;5097934;28;20436;-76
2022/07/16 14:36:42;;;;;;;3.53;1.47;;;;;;;;;;5098887;28;20549;-76
2022/07/16 14:39:09;;;;;;;2.07;1.67;;;;;;;;;;5110751;28;20517;-76
2022/07/16 14:41:37;;;;;;;1.90;1.70;;;;;;;;;;5112362;28;20431;-78
2022/07/16 14:44:04;;;;;;;2.73;1.67;;;;;;;;;;5113247;28;20435;-77
2022/07/16 14:46:32;;;;;;;2.57;1.40;;;;;;;;;;5113469;28;20462;-76
2022/07/16 14:49:00;;;;;;;1.93;1.33;;;;;;;;;;5109425;28;20820;-75
2022/07/16 14:51:27;;;;;;;4.67;1.73;;;;;;;;;;5094846;28;20512;-76
2022/07/16 14:53:54;;;;;;;2.30;1.60;;;;;;;;;;5094776;28;20439;-75
2022/07/16 14:56:21;;;;;;;4.10;2.10;;;;;;;;;;5096804;28;20911;-75
2022/07/16 14:58:49;;;;;;;3.00;1.40;;;;;;;;;;5098901;28;20445;-76
2022/07/16 15:01:16;;;;;;;2.70;1.50;;;;;;;;;;5093344;28;20443;-76
2022/07/16 15:03:45;;;;;;;2.33;1.63;;;;;;;;;;5092432;28;20439;-73
2022/07/16 15:06:12;;;;;;;2.60;1.70;;;;;;;;;;5091721;28;20546;-75
2022/07/16 15:08:39;;;;;;;3.30;1.73;;;;;;;;;;5092637;28;20439;-74